Overcast Current Weather (METAR) For Amsterdam Schiphol Airport

All times on the weather descriptions are local

Observed at 09:55 - (12 mins ago)

Overcast

7°C

Overcast
Clouds: Broken Clouds at 700ft, Overcast at 800ft, Broken Clouds at 1,000ft
Wind: 120° at 09 knots, varying from 090° to 150
Visibility: 8,000m
QNH: 1007
Dew Point: 6°C
Runways with a headwind: Runway 06, Runway 09, Runways 18L/C/R

Sunrise Today: 08:20
Sunset Today: 16:36

Forecast Weather (TAF) For Amsterdam Schiphol Airport

Issued at 01:00 - (2 days 14 hrs ago)


Runways with a headwind: Unable to determine, wind is clam

Forecast valid until 01:00 on Sunday

METAR/TAF RAW METAR / TAF

EHAM 270855Z 12009KT 090V150 8000 BKN007 OVC008 07/06 Q1007 BECMG BKN010

Weather Widget

Put weather from any of our airports on your website with our weather widget.

Find Another Search

Airport Search


Please Wait Please Wait - Loading
Close
Close

Login

Username:

Password:

Remember Me:

Remember me on this computer

Forgotten your password? Get a reset password sent to your registered e-mail address

Close

User Private Message

Subject:

Message: